Quick Links (Output Below):   Max & Min Temps   /   Climate Reports   /   Zone Forecasts
River Forecasts   /   Forestry Forecasts   /   Aviation Forecasts   /   Radars   /   Features

Terminal Aerodrome Forecast (Hot Springs)

Pick a Site:
Arkadelphia | El Dorado | Fayetteville | Fort Smith | Harrison | Highfill | Hot Springs | Jonesboro
Little Rock | Monticello | Mountain Home | Pine Bluff | Texarkana
 Forecast 

KHOT 191622Z 1916/2012 28005KT P6SM SKC
     FM191900 20007KT P6SM VCTS SCT020CB BKN250
     FM200100 27006KT 5SM TSRA BR BKN025CB OVC070
     FM200700 30010G25KT P6SM BKN025 OVC080=


 Latest METARs (Observations) 
How to Decode METARs
17Z KHOT 191653Z AUTO 00000KT 10SM CLR 22/15 A2972 RMK AO2 SLP060
         T02220150
         
16Z KHOT 191553Z AUTO VRB03KT 10SM CLR 20/15 A2972 RMK AO2 SLP061
         T02000150
         
15Z KHOT 191453Z AUTO VRB04KT 10SM CLR 18/15 A2972 RMK AO2 SLP059
         60003 T01830150 53001
         
14Z KHOT 191353Z AUTO 20004KT 10SM SCT100 16/14 A2970 RMK AO2 RAE50
         SLP053 P0002 T01610144
         
13Z KHOT 191253Z AUTO 28005KT 8SM -RA SCT080 OVC095 16/14 A2973 RMK
         AO2 RAB35 SLP062 P0001 T01560139
         
12Z KHOT 191153Z AUTO 29004KT 10SM BKN070 OVC090 16/15 A2972 RMK AO2
         SLP058 60012 70023 T01610150 10178 20161 55006
         
11Z KHOT 191053Z AUTO 25003KT 10SM FEW013 SCT043 OVC055 17/16 A2970
         RMK AO2 RAB15E47 SLP054 P0012 T01670156
         
10Z KHOT 190953Z AUTO 30003KT 8SM FEW003 BKN049 BKN070 16/16 A2971 RMK
         AO2 SLP057 T01610156
         
09Z KHOT 190853Z AUTO 00000KT 10SM FEW003 SCT050 BKN080 17/16 A2974
         RMK AO2 SLP065 T01670161 58006
         
08Z KHOT 190753Z AUTO 00000KT 10SM OVC016 17/16 A2975 RMK AO2 SLP069
         T01720161
         
***** Today's Observations (Above) *****


Back to Main Page
http://www.srh.noaa.gov/lzk/qfcst.php

USA.gov is the U.S. government's official web portal to all federal, state and local government web resources and services.